Terminal Aerodrome Forecast
Issued by NWS

Home | Current Version | Previous Version | Graphics & Text | Print | Product List | Glossary On
Versions: 1 2 3 4 5 6 7 8 9 10 11 12 13 14 15 16
000
FTUS43 KFGF 201124
TAFBJI
TAF
KBJI 201124Z 2012/2112 09007KT P6SM BKN110
     FM201800 09010KT P6SM VCSH OVC100
     FM202000 09011KT P6SM OVC060
      TEMPO 2020/2021 4SM -SHRA OVC040
     FM202100 08011KT 4SM -SHRA OVC040
     FM210100 06009KT 4SM -SHRA OVC015
     FM210400 05008KT 4SM -SHRA OVC008=

USA.gov is the U.S. government's official web portal to all federal, state and local government web resources and services.